createdAt,value
2018-12-21T00:02:27.068Z,4.73
2018-12-21T00:04:54.578Z,4.90
2018-12-21T00:07:22.078Z,4.57
2018-12-21T00:09:49.590Z,4.67
2018-12-21T00:12:17.160Z,4.73
2018-12-21T00:14:45.125Z,5.37
2018-12-21T00:17:12.790Z,4.60
2018-12-21T00:19:40.364Z,5.37
2018-12-21T00:22:07.902Z,5.20
2018-12-21T00:24:35.413Z,5.17
2018-12-21T00:27:02.976Z,4.83
2018-12-21T00:29:30.535Z,4.80
2018-12-21T00:32:03.766Z,5.70
2018-12-21T00:34:36.970Z,5.53
2018-12-21T00:37:10.057Z,4.57
2018-12-21T00:39:43.258Z,5.03
2018-12-21T00:42:12.789Z,4.90
2018-12-21T00:44:40.347Z,4.83
2018-12-21T00:47:08.295Z,4.90
2018-12-21T00:49:35.855Z,5.07
2018-12-21T00:52:03.441Z,4.90
2018-12-21T00:54:30.967Z,4.90
2018-12-21T00:56:58.461Z,4.53
2018-12-21T00:59:25.962Z,5.23
2018-12-21T01:01:54.189Z,4.40
2018-12-21T01:04:21.697Z,4.50
2018-12-21T01:06:49.304Z,5.20
2018-12-21T01:09:16.853Z,4.60
2018-12-21T01:11:44.357Z,5.07
2018-12-21T01:14:11.931Z,5.07
2018-12-21T01:16:39.468Z,4.47
2018-12-21T01:19:07.050Z,4.53
2018-12-21T01:21:38.651Z,4.67
2018-12-21T01:24:04.196Z,5.07
2018-12-21T01:26:31.909Z,5.20
2018-12-21T01:28:59.470Z,4.37
2018-12-21T01:31:27.132Z,4.53
2018-12-21T01:33:54.634Z,4.80
2018-12-21T01:36:22.281Z,4.30
2018-12-21T01:38:49.915Z,3.70
2018-12-21T01:41:17.425Z,4.50
2018-12-21T01:43:44.935Z,3.90
2018-12-21T01:46:12.494Z,3.60
2018-12-21T01:48:40.002Z,4.33
2018-12-21T01:51:07.510Z,3.80
2018-12-21T01:53:35.010Z,3.57
2018-12-21T01:56:02.562Z,3.50
2018-12-21T01:58:30.087Z,4.43
2018-12-21T02:00:57.643Z,3.57
2018-12-21T02:03:25.215Z,3.53
2018-12-21T02:05:52.771Z,3.43
2018-12-21T02:08:20.331Z,3.13
2018-12-21T02:10:47.995Z,3.57
2018-12-21T02:13:15.552Z,3.47
2018-12-21T02:15:43.118Z,3.77
2018-12-21T02:18:10.675Z,3.10
2018-12-21T02:20:38.697Z,3.43
2018-12-21T02:23:06.304Z,3.53
2018-12-21T02:25:33.863Z,3.60
2018-12-21T02:28:01.448Z,3.13
2018-12-21T02:30:29.112Z,3.00
2018-12-21T02:32:56.662Z,3.00
2018-12-21T02:35:24.165Z,3.07
2018-12-21T02:37:51.775Z,3.50
2018-12-21T02:40:19.335Z,3.50
2018-12-21T02:42:46.828Z,3.00
2018-12-21T02:45:14.459Z,3.13
2018-12-21T02:47:42.050Z,3.40
2018-12-21T02:50:09.639Z,3.17
2018-12-21T02:52:37.134Z,3.33
2018-12-21T02:55:04.719Z,3.03
2018-12-21T02:57:32.212Z,3.60
2018-12-21T02:59:59.784Z,3.23
2018-12-21T03:02:27.373Z,3.50
2018-12-21T03:04:54.925Z,3.13
2018-12-21T03:07:22.434Z,3.03
2018-12-21T03:09:49.948Z,2.50
2018-12-21T03:12:17.507Z,3.17
2018-12-21T03:14:45.014Z,2.97
2018-12-21T03:17:12.620Z,3.13
2018-12-21T03:19:40.126Z,2.77
2018-12-21T03:22:14.563Z,2.80
2018-12-21T03:24:37.255Z,3.03
2018-12-21T03:27:04.770Z,2.90
2018-12-21T03:29:32.394Z,3.03
2018-12-21T03:32:00.202Z,3.13
2018-12-21T03:34:28.035Z,3.30
2018-12-21T03:36:55.566Z,3.13
2018-12-21T03:39:23.695Z,3.00
2018-12-21T03:41:51.342Z,2.83
2018-12-21T03:44:19.240Z,2.70
2018-12-21T03:46:46.785Z,3.03
2018-12-21T03:49:14.300Z,3.33
2018-12-21T03:51:41.815Z,3.70
2018-12-21T03:54:09.355Z,2.77
2018-12-21T03:56:36.911Z,3.10
2018-12-21T03:59:04.448Z,2.80
2018-12-21T04:01:32.715Z,2.77
2018-12-21T04:04:00.265Z,3.03
2018-12-21T04:06:27.835Z,2.60
2018-12-21T04:08:55.480Z,3.00
2018-12-21T04:11:23.016Z,2.90
2018-12-21T04:13:50.526Z,2.40
2018-12-21T04:16:18.035Z,3.30
2018-12-21T04:18:45.550Z,2.63
2018-12-21T04:21:13.109Z,2.73
2018-12-21T04:23:41.105Z,2.67
2018-12-21T04:26:08.660Z,3.20
2018-12-21T04:28:36.170Z,3.23
2018-12-21T04:31:03.937Z,3.37
2018-12-21T04:33:31.490Z,3.60
2018-12-21T04:35:59.051Z,3.67
2018-12-21T04:38:26.594Z,3.70
2018-12-21T04:40:54.172Z,2.67
2018-12-21T04:43:21.854Z,3.27
2018-12-21T04:45:49.393Z,3.73
2018-12-21T04:48:17.009Z,3.03
2018-12-21T04:50:44.639Z,4.10
2018-12-21T04:53:12.182Z,3.40
2018-12-21T04:55:39.739Z,3.80
2018-12-21T04:58:07.318Z,3.23
2018-12-21T05:00:34.917Z,3.67
2018-12-21T05:03:02.534Z,3.40
2018-12-21T05:05:30.038Z,2.83
2018-12-21T05:07:57.574Z,3.40
2018-12-21T05:10:25.123Z,3.57
2018-12-21T05:12:52.626Z,3.43
2018-12-21T05:15:20.217Z,3.63
2018-12-21T05:17:47.778Z,3.30
2018-12-21T05:20:15.337Z,3.40
2018-12-21T05:22:51.913Z,3.80
2018-12-21T05:25:12.477Z,3.77
2018-12-21T05:27:40.110Z,3.60
2018-12-21T05:30:08.681Z,4.17
2018-12-21T05:32:36.211Z,3.97
2018-12-21T05:35:03.800Z,3.80
2018-12-21T05:37:31.304Z,3.93
2018-12-21T05:39:58.818Z,2.83
2018-12-21T05:42:26.391Z,3.33
2018-12-21T05:44:54.010Z,3.63
2018-12-21T05:47:21.609Z,3.50
2018-12-21T05:49:49.234Z,3.53
2018-12-21T05:52:16.887Z,3.43
2018-12-21T05:54:44.498Z,3.07
2018-12-21T05:57:12.887Z,2.97
2018-12-21T05:59:40.398Z,3.57
2018-12-21T06:02:07.985Z,3.53
2018-12-21T06:04:35.535Z,3.20
2018-12-21T06:07:03.438Z,2.97
2018-12-21T06:09:31.003Z,3.87
2018-12-21T06:11:58.536Z,3.53
2018-12-21T06:14:26.087Z,3.40
2018-12-21T06:16:53.598Z,3.67
2018-12-21T06:19:21.182Z,3.30
2018-12-21T06:21:49.545Z,4.20
2018-12-21T06:24:17.045Z,3.73
2018-12-21T06:26:44.618Z,3.20
2018-12-21T06:29:12.186Z,3.40
2018-12-21T06:31:39.701Z,3.60
2018-12-21T06:34:07.274Z,4.03
2018-12-21T06:36:34.789Z,3.30
2018-12-21T06:39:02.289Z,3.47
2018-12-21T06:41:29.938Z,3.70
2018-12-21T06:43:57.498Z,3.90
2018-12-21T06:46:25.052Z,3.47
2018-12-21T06:48:52.559Z,3.53
2018-12-21T06:51:20.094Z,3.83
2018-12-21T06:53:47.680Z,3.20
2018-12-21T06:56:15.413Z,3.40
2018-12-21T06:58:42.915Z,3.63
2018-12-21T07:01:10.484Z,3.40
2018-12-21T07:03:37.978Z,3.27
2018-12-21T07:06:05.578Z,4.00
2018-12-21T07:08:33.074Z,3.77
2018-12-21T07:11:00.590Z,3.83
2018-12-21T07:13:28.131Z,4.27
2018-12-21T07:15:55.703Z,3.73
2018-12-21T07:18:23.236Z,4.00
2018-12-21T07:20:50.802Z,3.10
2018-12-21T07:23:26.866Z,3.80
2018-12-21T07:25:47.969Z,3.80
2018-12-21T07:28:15.454Z,4.10
2018-12-21T07:30:42.953Z,3.80
2018-12-21T07:33:10.546Z,4.13
2018-12-21T07:35:38.059Z,3.07
2018-12-21T07:38:05.687Z,4.03
2018-12-21T07:40:33.224Z,3.37
2018-12-21T07:43:00.783Z,3.80
2018-12-21T07:45:28.351Z,3.33
2018-12-21T07:47:56.012Z,2.87
2018-12-21T07:50:23.564Z,3.20
2018-12-21T07:52:53.257Z,3.73
2018-12-21T07:55:20.738Z,2.77
2018-12-21T07:57:48.296Z,3.13
2018-12-21T08:00:15.873Z,3.20
2018-12-21T08:02:43.380Z,3.23
2018-12-21T08:05:10.912Z,3.60
2018-12-21T08:07:38.462Z,3.00
2018-12-21T08:10:09.610Z,3.60
2018-12-21T08:12:37.142Z,3.13
2018-12-21T08:15:05.614Z,3.70
2018-12-21T08:17:33.279Z,3.17
2018-12-21T08:20:00.822Z,3.13
2018-12-21T08:22:28.343Z,2.90
2018-12-21T08:24:55.985Z,3.10
2018-12-21T08:27:23.558Z,2.60
2018-12-21T08:29:51.289Z,2.80
2018-12-21T08:32:18.813Z,3.33
2018-12-21T08:34:46.320Z,2.73
2018-12-21T08:37:13.870Z,2.60
2018-12-21T08:39:41.518Z,2.40
2018-12-21T08:42:09.042Z,2.40
2018-12-21T08:44:36.579Z,3.03
2018-12-21T08:47:04.130Z,3.07
2018-12-21T08:49:32.397Z,3.20
2018-12-21T08:52:00.131Z,2.80
2018-12-21T08:54:27.658Z,2.97
2018-12-21T08:56:55.193Z,2.90
2018-12-21T08:59:22.900Z,2.70
2018-12-21T09:01:50.488Z,2.60
2018-12-21T09:04:18.204Z,2.40
2018-12-21T09:06:45.742Z,2.27
2018-12-21T09:09:13.239Z,2.37
2018-12-21T09:11:40.929Z,2.40
2018-12-21T09:14:08.562Z,2.93
2018-12-21T09:16:36.154Z,2.27
2018-12-21T09:19:03.752Z,2.30
2018-12-21T09:21:31.243Z,2.57
2018-12-21T09:24:01.115Z,2.17
2018-12-21T09:26:28.368Z,2.10
2018-12-21T09:28:55.867Z,2.00
2018-12-21T09:31:23.442Z,1.73
2018-12-21T09:33:51.084Z,2.17
2018-12-21T09:36:18.681Z,1.70
2018-12-21T09:38:46.279Z,1.90
2018-12-21T09:41:13.941Z,1.87
2018-12-21T09:43:41.447Z,2.60
2018-12-21T09:46:09.025Z,2.30
2018-12-21T09:48:36.539Z,2.33
2018-12-21T09:51:05.063Z,1.90
2018-12-21T09:53:32.563Z,2.23
2018-12-21T09:56:00.098Z,1.93
2018-12-21T09:58:27.682Z,2.03
2018-12-21T10:00:55.375Z,2.00
2018-12-21T10:03:22.971Z,1.73
2018-12-21T10:05:50.483Z,1.90
2018-12-21T10:08:18.017Z,1.93
2018-12-21T10:10:45.572Z,1.80
2018-12-21T10:13:13.106Z,1.83
2018-12-21T10:15:40.602Z,1.73
2018-12-21T10:18:08.227Z,1.93
2018-12-21T10:20:35.726Z,1.63
2018-12-21T10:23:03.343Z,1.80
2018-12-21T10:25:30.906Z,1.60
2018-12-21T10:27:58.401Z,2.43
2018-12-21T10:30:25.940Z,1.23
2018-12-21T10:32:53.481Z,1.30
2018-12-21T10:35:20.968Z,1.70
2018-12-21T10:37:48.500Z,1.60
2018-12-21T10:40:16.060Z,1.70
2018-12-21T10:42:43.555Z,1.77
2018-12-21T10:45:11.053Z,1.50
2018-12-21T10:47:38.560Z,1.70
2018-12-21T10:50:08.656Z,1.60
2018-12-21T10:52:36.214Z,2.07
2018-12-21T10:55:04.389Z,1.27
2018-12-21T10:57:31.934Z,1.80
2018-12-21T10:59:59.507Z,2.00
2018-12-21T11:02:27.062Z,1.33
2018-12-21T11:04:54.563Z,2.17
2018-12-21T11:07:22.473Z,2.10
2018-12-21T11:09:49.969Z,1.93
2018-12-21T11:12:17.470Z,1.23
2018-12-21T11:14:45.075Z,2.03
2018-12-21T11:17:12.589Z,1.53
2018-12-21T11:19:40.203Z,1.50
2018-12-21T11:22:07.783Z,1.70
2018-12-21T11:24:35.879Z,1.90
2018-12-21T11:27:03.603Z,1.43
2018-12-21T11:29:31.176Z,1.40
2018-12-21T11:31:58.705Z,2.40
2018-12-21T11:34:26.211Z,1.40
2018-12-21T11:36:53.758Z,1.60
2018-12-21T11:39:21.287Z,1.40
2018-12-21T11:41:49.374Z,1.30
2018-12-21T11:44:16.921Z,1.60
2018-12-21T11:46:44.422Z,1.40
2018-12-21T11:49:11.939Z,1.60
2018-12-21T11:51:39.459Z,1.57
2018-12-21T11:54:06.957Z,2.00
2018-12-21T11:56:34.487Z,1.37
2018-12-21T11:59:02.014Z,1.50
2018-12-21T12:01:29.549Z,1.40
2018-12-21T12:03:57.092Z,1.40
2018-12-21T12:06:24.600Z,1.57
2018-12-21T12:08:52.172Z,1.47
2018-12-21T12:11:19.948Z,1.47
2018-12-21T12:13:47.481Z,1.43
2018-12-21T12:16:15.073Z,1.33
2018-12-21T12:18:42.563Z,1.13
2018-12-21T12:21:10.118Z,2.13
2018-12-21T12:23:38.042Z,1.57
2018-12-21T12:26:05.799Z,1.20
2018-12-21T12:28:33.495Z,1.33
2018-12-21T12:31:01.080Z,1.40
2018-12-21T12:33:28.634Z,1.50
2018-12-21T12:35:56.167Z,1.83
2018-12-21T12:38:23.693Z,1.47
2018-12-21T12:40:51.287Z,1.30
2018-12-21T12:43:18.974Z,1.40
2018-12-21T12:45:46.489Z,1.50
2018-12-21T12:48:14.011Z,1.60
2018-12-21T12:50:41.520Z,1.63
2018-12-21T12:53:09.071Z,1.33
2018-12-21T12:55:36.674Z,1.37
2018-12-21T12:58:04.269Z,1.80
2018-12-21T13:00:31.805Z,1.40
2018-12-21T13:02:59.460Z,1.53
2018-12-21T13:05:27.045Z,1.73
2018-12-21T13:07:54.579Z,1.77
2018-12-21T13:10:22.145Z,1.40
2018-12-21T13:12:49.698Z,1.43
2018-12-21T13:15:17.262Z,2.00
2018-12-21T13:17:44.922Z,1.33
2018-12-21T13:20:12.598Z,1.67
2018-12-21T13:22:40.258Z,1.63
2018-12-21T13:25:11.629Z,2.03
2018-12-21T13:27:37.968Z,1.70
2018-12-21T13:30:07.854Z,1.53
2018-12-21T13:32:35.413Z,1.77
2018-12-21T13:35:03.020Z,2.53
2018-12-21T13:37:30.623Z,2.10
2018-12-21T13:39:58.179Z,2.07
2018-12-21T13:42:26.918Z,1.70
2018-12-21T13:44:54.625Z,1.80
2018-12-21T13:47:22.244Z,1.50
2018-12-21T13:49:49.772Z,1.90
2018-12-21T13:52:17.266Z,1.80
2018-12-21T13:54:44.809Z,1.90
2018-12-21T13:57:12.335Z,2.10
2018-12-21T13:59:39.893Z,1.70
2018-12-21T14:02:07.477Z,1.63
2018-12-21T14:04:35.103Z,1.77
2018-12-21T14:07:02.633Z,2.30
2018-12-21T14:09:30.128Z,1.77
2018-12-21T14:11:57.613Z,2.40
2018-12-21T14:14:25.107Z,1.70
2018-12-21T14:16:52.664Z,1.63
2018-12-21T14:19:20.274Z,1.90
2018-12-21T14:21:47.828Z,2.30
2018-12-21T14:24:15.311Z,1.90
2018-12-21T14:26:42.830Z,2.57
2018-12-21T14:29:10.404Z,2.30
2018-12-21T14:31:37.900Z,2.97
2018-12-21T14:34:05.450Z,2.63
2018-12-21T14:36:32.955Z,2.43
2018-12-21T14:39:00.499Z,2.50
2018-12-21T14:41:28.103Z,2.30
2018-12-21T14:43:55.596Z,2.03
2018-12-21T14:46:23.147Z,2.40
2018-12-21T14:48:50.777Z,2.50
2018-12-21T14:51:18.307Z,2.30
2018-12-21T14:53:45.977Z,1.93
2018-12-21T14:56:13.566Z,2.67
2018-12-21T14:58:41.149Z,2.07
2018-12-21T15:01:08.840Z,1.97
2018-12-21T15:03:36.451Z,2.60
2018-12-21T15:06:04.011Z,2.47
2018-12-21T15:08:31.497Z,2.50
2018-12-21T15:10:59.022Z,2.27
2018-12-21T15:13:26.521Z,2.83
2018-12-21T15:15:54.047Z,2.57
2018-12-21T15:18:21.613Z,2.63
2018-12-21T15:20:49.168Z,2.60
2018-12-21T15:23:16.666Z,2.63
2018-12-21T15:25:46.174Z,2.87
2018-12-21T15:28:13.821Z,2.20
2018-12-21T15:30:41.354Z,2.97
2018-12-21T15:33:08.849Z,2.77
2018-12-21T15:35:36.393Z,2.17
2018-12-21T15:38:03.929Z,2.17
2018-12-21T15:40:31.433Z,2.80
2018-12-21T15:42:59.063Z,2.87
2018-12-21T15:45:26.712Z,3.50
2018-12-21T15:47:54.214Z,2.57
2018-12-21T15:50:21.754Z,2.53
2018-12-21T15:52:49.392Z,3.60
2018-12-21T15:55:16.950Z,2.70
2018-12-21T15:57:44.450Z,2.70
2018-12-21T16:00:12.174Z,2.23
2018-12-21T16:02:40.776Z,2.83
2018-12-21T16:05:08.390Z,1.90
2018-12-21T16:07:35.894Z,3.30
2018-12-21T16:10:05.983Z,2.50
2018-12-21T16:12:33.557Z,2.30
2018-12-21T16:15:01.117Z,2.87
2018-12-21T16:17:28.681Z,2.57
2018-12-21T16:19:56.177Z,2.60
2018-12-21T16:22:23.691Z,2.53
2018-12-21T16:24:51.278Z,2.50
2018-12-21T16:27:18.834Z,2.83
2018-12-21T16:29:46.487Z,2.83
2018-12-21T16:32:14.038Z,2.60
2018-12-21T16:34:41.598Z,2.30
2018-12-21T16:37:09.158Z,2.00
2018-12-21T16:39:36.654Z,2.60
2018-12-21T16:42:04.277Z,2.30
2018-12-21T16:44:31.837Z,2.13
2018-12-21T16:46:59.403Z,2.20
2018-12-21T16:49:26.957Z,2.20
2018-12-21T16:51:54.594Z,2.00
2018-12-21T16:54:22.225Z,2.27
2018-12-21T16:56:49.844Z,1.90
2018-12-21T16:59:17.374Z,1.70
2018-12-21T17:01:44.987Z,1.60
2018-12-21T17:04:12.533Z,1.60
2018-12-21T17:06:40.083Z,2.10
2018-12-21T17:09:08.052Z,2.20
2018-12-21T17:11:35.612Z,1.97
2018-12-21T17:14:03.179Z,2.13
2018-12-21T17:16:30.740Z,2.20
2018-12-21T17:18:59.084Z,1.93
2018-12-21T17:21:26.615Z,1.67
2018-12-21T17:23:54.331Z,1.80
2018-12-21T17:26:21.893Z,1.90
2018-12-21T17:28:49.455Z,2.10
2018-12-21T17:31:16.991Z,2.00
2018-12-21T17:33:44.580Z,2.03
2018-12-21T17:36:12.078Z,2.13
2018-12-21T17:38:39.589Z,2.20
2018-12-21T17:41:07.089Z,2.37
2018-12-21T17:43:34.583Z,2.30
2018-12-21T17:46:02.169Z,2.20
2018-12-21T17:48:29.736Z,2.17
2018-12-21T17:50:57.290Z,1.80
2018-12-21T17:53:24.786Z,2.13
2018-12-21T17:55:52.292Z,2.40
2018-12-21T17:58:19.793Z,2.50
2018-12-21T18:00:47.353Z,2.10
2018-12-21T18:03:18.369Z,2.43
2018-12-21T18:05:45.930Z,2.50
2018-12-21T18:08:13.486Z,2.37
2018-12-21T18:10:41.040Z,2.47
2018-12-21T18:13:09.528Z,2.23
2018-12-21T18:15:37.096Z,2.83
2018-12-21T18:18:04.651Z,2.13
2018-12-21T18:20:32.147Z,2.20
2018-12-21T18:23:00.822Z,2.20
2018-12-21T18:25:28.322Z,2.60
2018-12-21T18:27:55.923Z,2.30
2018-12-21T18:30:23.430Z,3.37
2018-12-21T18:32:50.984Z,2.33
2018-12-21T18:35:19.638Z,2.57
2018-12-21T18:37:48.711Z,2.43
2018-12-21T18:40:16.302Z,2.20
2018-12-21T18:42:43.845Z,2.10
2018-12-21T18:45:11.354Z,2.80
2018-12-21T18:47:38.971Z,1.97
2018-12-21T18:50:09.169Z,2.40
2018-12-21T18:52:36.736Z,1.70
2018-12-21T18:55:08.206Z,2.00
2018-12-21T18:57:35.767Z,2.70
2018-12-21T19:00:06.144Z,1.80
2018-12-21T19:02:33.658Z,2.10
2018-12-21T19:05:01.196Z,1.57
2018-12-21T19:07:28.706Z,1.80
2018-12-21T19:09:56.420Z,2.00
2018-12-21T19:12:23.921Z,1.77
2018-12-21T19:14:51.497Z,1.93
2018-12-21T19:17:19.061Z,2.30
2018-12-21T19:19:46.564Z,1.80
2018-12-21T19:22:14.060Z,1.30
2018-12-21T19:24:41.752Z,1.80
2018-12-21T19:27:09.335Z,1.70
2018-12-21T19:29:36.893Z,1.50
2018-12-21T19:32:04.385Z,1.53
2018-12-21T19:34:31.918Z,2.03
2018-12-21T19:36:59.581Z,1.70
2018-12-21T19:39:27.242Z,1.93
2018-12-21T19:41:54.734Z,1.57
2018-12-21T19:44:22.225Z,1.53
2018-12-21T19:46:49.751Z,1.70
2018-12-21T19:49:17.384Z,1.43
2018-12-21T19:51:45.055Z,1.50
2018-12-21T19:54:13.006Z,1.97
2018-12-21T19:56:43.282Z,1.93
2018-12-21T19:59:10.816Z,1.40
2018-12-21T20:01:38.569Z,1.40
2018-12-21T20:04:06.081Z,1.50
2018-12-21T20:06:33.672Z,1.90
2018-12-21T20:09:01.173Z,2.23
2018-12-21T20:11:28.794Z,1.57
2018-12-21T20:13:56.440Z,1.70
2018-12-21T20:16:23.943Z,1.83
2018-12-21T20:18:51.443Z,1.30
2018-12-21T20:21:18.963Z,1.50
2018-12-21T20:23:47.144Z,1.20
2018-12-21T20:26:14.687Z,1.53
2018-12-21T20:28:42.226Z,1.47
2018-12-21T20:31:09.888Z,1.40
2018-12-21T20:33:37.453Z,1.40
2018-12-21T20:36:05.016Z,1.17
2018-12-21T20:38:32.526Z,1.30
2018-12-21T20:41:02.893Z,1.50
2018-12-21T20:43:30.457Z,1.30
2018-12-21T20:45:58.013Z,2.10
2018-12-21T20:48:25.513Z,1.47
2018-12-21T20:50:53.134Z,1.57
2018-12-21T20:53:20.691Z,2.00
2018-12-21T20:55:48.191Z,1.70
2018-12-21T20:58:19.840Z,2.10
2018-12-21T21:00:47.339Z,1.80
2018-12-21T21:03:14.863Z,1.60
2018-12-21T21:05:44.052Z,2.00
2018-12-21T21:08:11.873Z,1.87
2018-12-21T21:10:39.450Z,1.77
2018-12-21T21:13:06.969Z,2.27
2018-12-21T21:15:34.627Z,2.30
2018-12-21T21:18:02.201Z,1.73
2018-12-21T21:20:30.939Z,1.37
2018-12-21T21:22:58.435Z,2.10
2018-12-21T21:25:26.046Z,2.00
2018-12-21T21:27:53.599Z,2.13
2018-12-21T21:30:21.157Z,2.03
2018-12-21T21:32:48.666Z,2.43
2018-12-21T21:35:16.284Z,1.93
2018-12-21T21:37:43.809Z,2.10
2018-12-21T21:40:14.777Z,2.23
2018-12-21T21:42:42.342Z,1.67
2018-12-21T21:45:10.250Z,2.17
2018-12-21T21:47:37.850Z,2.37
2018-12-21T21:50:08.528Z,2.10
2018-12-21T21:52:36.162Z,2.33
2018-12-21T21:55:04.268Z,2.20
2018-12-21T21:57:39.312Z,2.00
2018-12-21T22:00:01.499Z,2.00
2018-12-21T22:02:29.072Z,2.83
2018-12-21T22:04:56.630Z,2.20
2018-12-21T22:07:24.192Z,2.20
2018-12-21T22:09:51.846Z,2.07
2018-12-21T22:12:19.513Z,2.03
2018-12-21T22:14:47.072Z,2.67
2018-12-21T22:17:14.673Z,2.13
2018-12-21T22:19:42.292Z,2.07
2018-12-21T22:22:09.849Z,2.30
2018-12-21T22:24:37.408Z,2.70
2018-12-21T22:27:05.130Z,1.80
2018-12-21T22:29:32.748Z,2.03
2018-12-21T22:32:00.246Z,1.73
2018-12-21T22:34:27.772Z,1.97
2018-12-21T22:36:55.286Z,2.17
2018-12-21T22:39:22.808Z,2.10
2018-12-21T22:41:50.344Z,1.83
2018-12-21T22:44:17.842Z,2.50
2018-12-21T22:46:45.385Z,1.73
2018-12-21T22:49:12.946Z,2.00
2018-12-21T22:51:40.449Z,2.03
2018-12-21T22:54:07.959Z,1.93
2018-12-21T22:56:35.452Z,2.33
2018-12-21T22:59:03.044Z,2.40
2018-12-21T23:01:30.572Z,2.58
2018-12-21T23:03:58.174Z,2.30
2018-12-21T23:06:25.744Z,2.60
2018-12-21T23:08:53.306Z,1.80
2018-12-21T23:11:20.819Z,2.17
2018-12-21T23:13:48.301Z,1.70
2018-12-21T23:16:15.797Z,1.73
2018-12-21T23:18:43.328Z,2.50
2018-12-21T23:21:10.836Z,2.00
2018-12-21T23:23:38.340Z,2.33
2018-12-21T23:26:05.829Z,1.43
2018-12-21T23:28:33.357Z,1.93
2018-12-21T23:31:01.017Z,1.60
2018-12-21T23:33:28.945Z,1.63
2018-12-21T23:35:56.552Z,2.00
2018-12-21T23:38:24.110Z,1.93
2018-12-21T23:40:51.674Z,1.37
2018-12-21T23:43:19.230Z,1.87
2018-12-21T23:45:46.801Z,1.67
2018-12-21T23:48:14.362Z,1.93
2018-12-21T23:50:42.174Z,1.30
2018-12-21T23:53:09.685Z,1.60
2018-12-21T23:55:37.235Z,1.20
2018-12-21T23:58:13.216Z,1.13
